Downstream station:
SHEF ID: HAHO2 Gaines Creek on Hwy 1 SW of Hart
STATION TYPE:
PRECIP STAGE RIV-FLOW VOLTAGE BAT-LOAD
in ft cfs volt volt
Ccp-Rev Ccp-Rev Ccp-Rev Ccp-Rev Ccp-Rev
(US/Central)
02/28 00:00 0.00 9.53 236 12.25 12.25
02/28 01:00 0.00 9.52 234 12.25 12.25
02/28 02:00 0.00 9.52 234 12.25 12.25
02/28 03:00 0.00 9.52 234 12.17 12.25
02/28 04:00 0.00 9.51 232 12.17 12.17
02/28 05:00 0.00 9.51 232 12.17 12.17
02/28 06:00 0.00 9.51 232 12.17 12.17
02/28 07:00 0.00 9.50 229 12.17 12.17
02/28 08:00 0.00 9.50 229 12.17 12.17
02/28 09:00 0.00 9.49 227 12.33 12.33
02/28 10:00 0.00 9.48 225 12.65 12.65
02/28 11:00 0.00 9.47 222 12.97 12.89
02/28 12:00 0.00 9.45 218 13.68 13.84
02/28 13:00 0.00 9.44 216 13.21 13.29
02/28 14:00 0.00 9.42 211 13.13 13.21
02/28 15:00 0.00 9.40 207 13.05 13.05
02/28 16:00 0.00 9.39 205 12.97 12.57
02/28 17:00 0.00 9.36 199 12.97 12.49
02/28 18:00 0.00 9.36 199 13.05 12.41
02/28 19:00 0.00 9.35 197 12.33 12.41
02/28 20:00 0.00 9.33 193 12.25 12.33
02/28 21:00 0.00 9.31 189 12.33 12.33
02/28 22:00 0.00 9.29 185 12.25 12.33
02/28 23:00 0.00 9.28 183 12.33 12.33